createdAt,value
2023-05-29T00:20:20.972Z,17.05
2023-05-29T00:50:39.103Z,16.65
2023-05-29T01:20:56.159Z,16.6
2023-05-29T01:51:14.078Z,16.6
2023-05-29T02:21:30.919Z,16.35
2023-05-29T02:51:47.510Z,15.2
2023-05-29T03:22:03.138Z,14.55
2023-05-29T03:52:19.800Z,14.6
2023-05-29T04:22:39.158Z,15
2023-05-29T04:52:59.624Z,16.1
2023-05-29T05:23:20.946Z,17.5
2023-05-29T05:53:43.153Z,18.8
2023-05-29T06:24:04.863Z,19.5
2023-05-29T06:54:39.025Z,22.9
2023-05-29T07:25:04.983Z,23.5
2023-05-29T07:55:26.880Z,23.75
2023-05-29T08:25:49.962Z,25.5
2023-05-29T08:56:23.170Z,28.2
2023-05-29T09:26:39.161Z,28.5
2023-05-29T09:57:03.890Z,28.45
2023-05-29T10:27:24.768Z,29.95
2023-05-29T10:57:44.813Z,30.05
2023-05-29T11:28:04.095Z,29.05
2023-05-29T11:58:25.485Z,30.7
2023-05-29T12:28:42.524Z,29.3
2023-05-29T12:59:02.649Z,29.05
2023-05-29T13:29:18.977Z,29.25
2023-05-29T13:59:28.633Z,28.7
2023-05-29T14:29:31.940Z,28.15
2023-05-29T14:59:44.961Z,26
2023-05-29T15:30:00.148Z,25.15
2023-05-29T16:00:16.476Z,25.05
2023-05-29T16:30:32.842Z,24.55
2023-05-29T17:00:49.818Z,24.35
2023-05-29T17:31:05.749Z,24.1
2023-05-29T18:01:23.077Z,23.4
2023-05-29T18:31:40.507Z,22.65
2023-05-29T19:01:56.938Z,21.9
2023-05-29T19:32:12.643Z,21.4
2023-05-29T20:02:30.321Z,20.65
2023-05-29T20:32:47.169Z,19.9
2023-05-29T21:03:04.859Z,19.45
2023-05-29T21:33:23.968Z,18.95
2023-05-29T22:03:41.032Z,18.75
2023-05-29T22:33:58.043Z,18.15
2023-05-29T23:04:15.503Z,17.9
2023-05-29T23:34:32.831Z,17.5
